Terminal Aerodrome Forecast
Issued by NWS

Home | Current Version | Previous Version | Graphics & Text | Print | Product List | Glossary On
Versions: 1 2 3 4 5 6 7 8 9 10 11 12 13 14 15 16 17 18 19 20 21 22 23 24 25 26 27 28 29 30 31 32 33 34 35 36 37 38 39 40 41 42 43 44 45 46 47 48 49 50
000
FTUS45 KBOU 021720
TAFAPA
TAF
KAPA 021720Z 0218/0318 VRB06KT P6SM FEW110 FEW220
     FM030100 31007KT P6SM FEW080 SCT120
     FM030300 26007KT P6SM FEW080 SCT110
     FM030600 36012G22KT P6SM FEW050 SCT100
     FM030800 03009KT P6SM SCT010 BKN020 BKN035
     FM031100 34007KT P6SM FEW025 BKN040
     FM031400 VRB05KT P6SM SCT040=

USA.gov is the U.S. government's official web portal to all federal, state and local government web resources and services.